Time;durP1;ratioP1;P1;durP2;ratioP2;P2;SDS_P1;SDS_P2;PMS_P1;PMS_P2;Temp;Humidity;BMP_temperature;BMP_pressure;BME280_temperature;BME280_humidity;BME280_pressure;Samples;Min_cycle;Max_cycle;Signal;HPM_P1;HPM_P2
2022/12/17 13:06:08;;;;;;;9.13;4.77;;;5.00;97.70;;;;;;5063368;28;20313;-68
2022/12/17 13:08:35;;;;;;;10.43;6.03;;;5.00;97.60;;;;;;5048159;28;20186;-67
2022/12/17 13:11:27;;;;;;;10.43;5.87;;;5.00;97.60;;;;;;5048081;28;20598;-66
2022/12/17 13:13:59;;;;;;;12.57;5.70;;;5.00;97.60;;;;;;5066035;28;20193;-68
2022/12/17 13:16:33;;;;;;;10.73;5.50;;;5.00;97.90;;;;;;5067147;28;20185;-67
2022/12/17 13:19:20;;;;;;;12.40;5.90;;;5.00;97.50;;;;;;5067412;28;20175;-67
2022/12/17 13:21:47;;;;;;;11.07;5.73;;;5.00;97.50;;;;;;5051919;28;20651;-67
2022/12/17 13:24:25;;;;;;;16.43;6.53;;;5.00;97.60;;;;;;5067250;28;20191;-67
2022/12/17 13:26:52;;;;;;;16.70;7.47;;;4.90;97.50;;;;;;5034762;28;20195;-67
2022/12/17 13:29:28;;;;;;;13.97;7.33;;;4.90;97.50;;;;;;5066067;28;20205;-67
2022/12/17 13:32:07;;;;;;;16.63;7.43;;;4.90;97.50;;;;;;5051764;28;20239;-67
2022/12/17 13:34:46;;;;;;;21.90;8.93;;;4.90;97.60;;;;;;5052807;28;20182;-67
2022/12/17 13:37:26;;;;;;;13.90;7.43;;;4.90;97.60;;;;;;5052286;28;20627;-68
2022/12/17 13:40:03;;;;;;;14.87;7.33;;;4.80;97.60;;;;;;5069983;28;20177;-67
2022/12/17 13:42:33;;;;;;;16.00;8.40;;;4.80;97.90;;;;;;5052140;28;20182;-68
2022/12/17 13:45:01;;;;;;;18.90;8.83;;;4.80;97.70;;;;;;5052461;28;20186;-69
2022/12/17 13:47:32;;;;;;;19.80;8.90;;;4.80;97.70;;;;;;5051124;28;20217;-67
2022/12/17 13:50:02;;;;;;;19.03;9.07;;;4.80;97.70;;;;;;5052593;28;20216;-66
2022/12/17 13:52:33;;;;;;;17.07;7.83;;;4.80;97.70;;;;;;5051956;28;20197;-67
2022/12/17 13:55:09;;;;;;;17.33;8.33;;;4.80;97.80;;;;;;5052482;28;20192;-67
2022/12/17 13:57:37;;;;;;;19.13;8.53;;;4.80;97.70;;;;;;5069114;28;20685;-68
2022/12/17 14:00:06;;;;;;;17.73;8.83;;;4.80;97.70;;;;;;5071262;28;20267;-67
2022/12/17 14:02:41;;;;;;;21.67;9.67;;;4.80;97.70;;;;;;5070623;28;20211;-67
2022/12/17 14:05:24;;;;;;;19.23;8.30;;;4.80;97.70;;;;;;5070623;28;20225;-67
2022/12/17 14:07:52;;;;;;;17.83;8.23;;;4.80;97.70;;;;;;5051566;28;20200;-67
2022/12/17 14:10:20;;;;;;;19.20;8.80;;;4.70;97.70;;;;;;5051558;28;20255;-67
2022/12/17 14:12:46;;;;;;;17.47;7.77;;;4.70;97.80;;;;;;5051204;28;20190;-67
2022/12/17 14:15:23;;;;;;;16.13;7.53;;;4.70;97.80;;;;;;5038519;28;20197;-66
2022/12/17 14:17:51;;;;;;;23.57;10.20;;;4.70;97.80;;;;;;5069370;28;20189;-67
2022/12/17 14:20:23;;;;;;;18.27;8.50;;;4.70;97.90;;;;;;5070366;28;20208;-67
2022/12/17 14:22:56;;;;;;;22.93;9.23;;;4.70;97.90;;;;;;5051872;28;20189;-67
2022/12/17 14:25:29;;;;;;;19.40;8.67;;;4.60;98.00;;;;;;5033501;28;20210;-68
2022/12/17 14:27:59;;;;;;;22.30;8.90;;;4.60;98.00;;;;;;5051092;28;20194;-67
2022/12/17 14:30:37;;;;;;;18.33;7.53;;;4.60;97.80;;;;;;5049722;28;20380;-68
2022/12/17 14:33:23;;;;;;;18.07;8.33;;;4.60;98.00;;;;;;5054343;28;20262;-67
2022/12/17 14:35:54;;;;;;;18.87;9.20;;;4.60;97.90;;;;;;5050913;28;20206;-67
2022/12/17 14:38:21;;;;;;;23.33;9.83;;;4.60;97.90;;;;;;5050826;28;20275;-68
2022/12/17 14:40:48;;;;;;;23.10;9.40;;;4.60;97.80;;;;;;5051230;28;20201;-68
2022/12/17 14:43:14;;;;;;;19.27;8.60;;;4.60;97.90;;;;;;5050530;28;20192;-68
2022/12/17 14:51:23;;;;;;;21.33;8.33;;;4.60;97.80;;;;;;5067535;28;20601;-68
2022/12/17 14:53:50;;;;;;;21.60;9.20;;;4.60;98.00;;;;;;5050149;28;20178;-67
2022/12/17 14:56:23;;;;;;;20.20;8.90;;;4.60;97.70;;;;;;5050850;28;20201;-67
2022/12/17 14:58:50;;;;;;;18.90;8.43;;;4.60;97.70;;;;;;5068682;28;20230;-67
2022/12/17 15:01:18;;;;;;;19.00;8.47;;;4.60;97.70;;;;;;5069582;28;20196;-68
2022/12/17 15:03:45;;;;;;;18.50;8.67;;;4.60;97.60;;;;;;5050644;28;20201;-68
2022/12/17 15:06:17;;;;;;;17.67;8.17;;;4.60;97.60;;;;;;5062142;28;20198;-69
2022/12/17 15:08:47;;;;;;;17.93;7.93;;;4.60;97.60;;;;;;5050488;28;20182;-67
2022/12/17 15:11:17;;;;;;;16.17;8.17;;;4.60;97.60;;;;;;5050152;28;20542;-68
2022/12/17 15:13:44;;;;;;;19.53;8.33;;;4.60;97.50;;;;;;5050534;28;20241;-68
2022/12/17 15:16:12;;;;;;;12.73;6.53;;;4.60;97.50;;;;;;5050169;28;20217;-68
2022/12/17 15:18:39;;;;;;;14.53;6.70;;;4.20;97.30;;;;;;5050228;28;20258;-68
2022/12/17 15:21:06;;;;;;;14.23;6.97;;;4.60;97.40;;;;;;5046950;28;20190;-68
2022/12/17 15:23:33;;;;;;;14.93;7.50;;;4.60;97.40;;;;;;5050162;28;20201;-67
2022/12/17 15:26:02;;;;;;;17.57;8.53;;;4.60;97.30;;;;;;5050074;28;20220;-67
2022/12/17 15:28:29;;;;;;;14.57;7.07;;;4.60;97.30;;;;;;5063246;28;20185;-67
2022/12/17 15:30:56;;;;;;;15.60;7.73;;;4.60;97.30;;;;;;5069422;28;20208;-67
2022/12/17 15:33:23;;;;;;;12.67;6.40;;;4.60;97.30;;;;;;5069190;28;20578;-67
2022/12/17 15:35:51;;;;;;;13.13;6.80;;;4.60;97.30;;;;;;5069976;28;20189;-67
2022/12/17 15:38:18;;;;;;;11.73;5.97;;;4.60;97.30;;;;;;5068810;28;20217;-67
2022/12/17 15:40:45;;;;;;;15.77;7.33;;;4.60;97.30;;;;;;5069049;28;20181;-67
2022/12/17 15:43:14;;;;;;;15.50;7.53;;;4.70;97.40;;;;;;5068766;28;21016;-68
2022/12/17 15:48:53;;;;;;;15.67;7.30;;;4.50;97.40;;;;;;5037985;28;20277;-68
2022/12/17 15:51:31;;;;;;;19.87;8.33;;;3.30;97.00;;;;;;5050752;28;20213;-68
2022/12/17 15:53:59;;;;;;;15.10;6.90;;;4.50;97.50;;;;;;5066709;28;20213;-68
2022/12/17 15:56:28;;;;;;;15.50;7.10;;;4.50;97.60;;;;;;5034331;28;20198;-68
2022/12/17 15:58:58;;;;;;;13.93;6.47;;;4.50;97.60;;;;;;5068581;28;20677;-67
2022/12/17 16:01:26;;;;;;;17.87;7.57;;;4.50;97.70;;;;;;5049690;28;20174;-67
2022/12/17 16:04:36;;;;;;;22.73;9.77;;;4.50;97.60;;;;;;5066596;28;20229;-67
2022/12/17 16:07:24;;;;;;;22.20;9.57;;;4.50;97.60;;;;;;4988139;28;20195;-67
2022/12/17 16:09:51;;;;;;;18.17;7.53;;;4.50;97.50;;;;;;5050210;28;20200;-67
2022/12/17 16:12:18;;;;;;;12.87;6.83;;;4.50;97.50;;;;;;5051532;28;20206;-67
2022/12/17 16:14:46;;;;;;;13.87;6.47;;;4.50;97.50;;;;;;5048131;28;20192;-67
2022/12/17 16:17:13;;;;;;;11.70;6.20;;;4.40;97.40;;;;;;5048434;28;20444;-67
2022/12/17 16:19:41;;;;;;;15.00;7.27;;;4.50;97.50;;;;;;5049444;28;20469;-67
2022/12/17 16:22:08;;;;;;;17.77;7.30;;;4.50;97.40;;;;;;5049191;28;20240;-67
2022/12/17 16:25:02;;;;;;;15.60;7.03;;;4.50;97.40;;;;;;5049165;28;20720;-68
2022/12/17 16:27:42;;;;;;;18.53;8.07;;;4.40;97.30;;;;;;5056151;28;20189;-67
2022/12/17 16:34:13;;;;;;;12.23;5.77;;;4.40;97.30;;;;;;4971112;28;20281;-67
2022/12/17 16:36:40;;;;;;;10.37;5.63;;;4.40;97.20;;;;;;4997241;28;20327;-67
2022/12/17 16:43:24;;;;;;;15.57;7.63;;;4.40;97.20;;;;;;4948918;28;20191;-67
2022/12/17 16:45:52;;;;;;;16.07;7.40;;;4.40;97.20;;;;;;4936225;29;20204;-67
2022/12/17 16:48:19;;;;;;;13.73;7.00;;;4.40;97.20;;;;;;4946690;29;20237;-67
2022/12/17 16:50:49;;;;;;;17.60;7.67;;;4.40;97.10;;;;;;4947849;29;20213;-67
2022/12/17 16:53:17;;;;;;;14.53;7.17;;;4.30;97.00;;;;;;4947081;29;20235;-67
2022/12/17 16:55:49;;;;;;;13.33;6.83;;;4.40;97.10;;;;;;4931350;29;20201;-67
2022/12/17 16:58:18;;;;;;;13.73;6.93;;;4.30;97.00;;;;;;4947384;29;20281;-67
2022/12/17 17:00:45;;;;;;;11.10;5.73;;;4.30;97.00;;;;;;4947334;29;20877;-67
2022/12/17 17:03:12;;;;;;;12.00;5.73;;;4.30;97.00;;;;;;4946254;29;20292;-67
2022/12/17 17:05:40;;;;;;;14.93;7.23;;;4.30;97.00;;;;;;4947403;29;20229;-67
2022/12/17 17:08:08;;;;;;;11.60;5.73;;;4.30;96.90;;;;;;4947574;28;20244;-67
2022/12/17 17:10:37;;;;;;;13.67;6.87;;;4.30;96.90;;;;;;5005345;28;20604;-67
2022/12/17 17:13:04;;;;;;;11.77;6.10;;;4.30;96.90;;;;;;4994334;28;20258;-67
2022/12/17 17:15:31;;;;;;;13.40;6.13;;;4.30;96.90;;;;;;4986980;28;20207;-67
2022/12/17 17:17:59;;;;;;;13.53;6.67;;;4.30;96.90;;;;;;4985917;28;20628;-67
2022/12/17 17:20:26;;;;;;;17.57;8.30;;;4.30;96.80;;;;;;4970770;28;20231;-67
2022/12/17 17:22:53;;;;;;;18.83;8.00;;;4.30;97.10;;;;;;5010511;28;20251;-67
2022/12/17 17:25:21;;;;;;;16.07;7.33;;;4.20;96.80;;;;;;5067880;28;20647;-67
2022/12/17 17:27:49;;;;;;;14.43;6.67;;;4.20;96.80;;;;;;5067502;28;20193;-67
2022/12/17 17:30:16;;;;;;;11.67;5.93;;;4.20;97.00;;;;;;5049230;28;20204;-67
2022/12/17 17:32:43;;;;;;;13.17;6.23;;;4.30;96.90;;;;;;5066713;28;20246;-67
2022/12/17 17:35:10;;;;;;;13.90;6.80;;;4.20;96.80;;;;;;5067496;28;20185;-67
2022/12/17 17:37:37;;;;;;;13.87;6.70;;;4.20;96.80;;;;;;5066668;28;20296;-67
2022/12/17 17:40:05;;;;;;;15.97;7.37;;;4.10;97.00;;;;;;5066759;28;20577;-67
2022/12/17 17:42:35;;;;;;;16.87;7.83;;;4.10;96.60;;;;;;5066828;28;20195;-68
2022/12/17 17:45:03;;;;;;;16.20;7.30;;;4.10;96.60;;;;;;5067333;28;20194;-67
2022/12/17 17:47:30;;;;;;;16.03;7.30;;;4.10;96.60;;;;;;5065776;28;20651;-67
2022/12/17 17:49:57;;;;;;;19.97;8.57;;;4.10;96.60;;;;;;5067500;28;20246;-67
2022/12/17 17:52:24;;;;;;;24.93;10.50;;;4.80;96.80;;;;;;5066638;28;20266;-66
2022/12/17 17:54:53;;;;;;;21.17;9.23;;;4.00;96.40;;;;;;5058358;28;20557;-68
2022/12/17 17:57:20;;;;;;;25.23;10.57;;;4.00;96.50;;;;;;5066511;28;20197;-68
2022/12/17 17:59:51;;;;;;;23.97;10.93;;;4.00;96.40;;;;;;5067197;28;20185;-68
2022/12/17 18:02:18;;;;;;;19.00;8.60;;;4.60;96.60;;;;;;5066490;28;20615;-67
2022/12/17 18:04:46;;;;;;;22.27;9.67;;;4.00;96.40;;;;;;5064719;28;20232;-68
2022/12/17 18:07:13;;;;;;;26.27;11.37;;;4.00;96.40;;;;;;5047851;28;20221;-68
2022/12/17 18:09:40;;;;;;;27.83;11.50;;;4.00;96.30;;;;;;5047885;28;20239;-68
2022/12/17 18:14:50;;;;;;;25.13;11.77;;;4.00;96.10;;;;;;5069680;28;20540;-67
2022/12/17 18:17:17;;;;;;;21.03;10.70;;;4.00;96.30;;;;;;5052704;28;20268;-66
2022/12/17 18:19:44;;;;;;;21.80;9.23;;;4.00;96.20;;;;;;5033896;28;20579;-68
2022/12/17 18:22:11;;;;;;;16.77;8.00;;;4.00;96.20;;;;;;5051477;28;20594;-66
2022/12/17 18:24:38;;;;;;;15.07;7.50;;;4.00;96.20;;;;;;5049707;28;20201;-67
2022/12/17 18:27:05;;;;;;;17.17;8.07;;;4.10;96.10;;;;;;5070519;28;20196;-67
2022/12/17 18:29:33;;;;;;;27.57;10.87;;;4.10;96.00;;;;;;5070824;28;20276;-67
2022/12/17 18:32:01;;;;;;;18.10;8.10;;;4.00;96.00;;;;;;5069604;28;20229;-66
2022/12/17 18:34:28;;;;;;;18.57;8.50;;;4.00;96.00;;;;;;5070860;28;20744;-67
2022/12/17 18:36:55;;;;;;;19.93;8.97;;;4.00;96.10;;;;;;5070288;28;20193;-67
2022/12/17 18:39:24;;;;;;;19.60;8.83;;;4.00;96.00;;;;;;5070050;28;20188;-67
2022/12/17 18:44:39;;;;;;;21.90;8.87;;;4.00;95.90;;;;;;5051513;28;20638;-68
2022/12/17 18:47:10;;;;;;;20.33;8.73;;;4.00;95.90;;;;;;5050340;28;20663;-68
2022/12/17 18:49:37;;;;;;;19.53;8.43;;;4.00;95.80;;;;;;5065032;28;20177;-68
2022/12/17 18:52:05;;;;;;;17.50;8.40;;;4.00;95.80;;;;;;5050727;28;20214;-67
2022/12/17 18:54:35;;;;;;;18.57;8.70;;;4.00;95.70;;;;;;5050552;28;20186;-67
2022/12/17 18:57:03;;;;;;;16.23;7.87;;;4.00;95.70;;;;;;5050590;28;20202;-68
2022/12/17 18:59:46;;;;;;;14.40;6.97;;;4.00;95.70;;;;;;5051030;28;20194;-68
2022/12/17 19:02:15;;;;;;;15.93;7.50;;;4.00;95.70;;;;;;5067661;28;20689;-68
2022/12/17 19:04:43;;;;;;;17.97;8.20;;;4.00;95.70;;;;;;5051509;28;20229;-67
2022/12/17 19:07:15;;;;;;;16.23;7.40;;;4.00;95.60;;;;;;5069554;28;20189;-68
2022/12/17 19:09:42;;;;;;;14.47;7.30;;;5.50;96.20;;;;;;5069121;28;20201;-68
2022/12/17 19:12:10;;;;;;;19.87;7.77;;;4.00;95.60;;;;;;5069404;28;20201;-68
2022/12/17 19:14:37;;;;;;;24.33;10.53;;;4.00;95.60;;;;;;5050390;28;20198;-68
2022/12/17 19:17:05;;;;;;;21.87;10.37;;;4.00;95.50;;;;;;5049837;28;20311;-67
2022/12/17 19:19:33;;;;;;;18.03;8.73;;;4.00;95.60;;;;;;5050560;28;20197;-68
2022/12/17 19:22:02;;;;;;;17.77;9.13;;;4.00;95.60;;;;;;5049549;28;20205;-67
2022/12/17 19:24:29;;;;;;;19.00;8.63;;;4.00;96.00;;;;;;5050019;28;20198;-68
2022/12/17 19:26:56;;;;;;;18.80;8.20;;;4.00;95.60;;;;;;5066778;28;20272;-67
2022/12/17 19:29:23;;;;;;;19.03;8.63;;;3.90;99.90;;;;;;5069150;28;20212;-67
2022/12/17 19:31:50;;;;;;;16.60;7.70;;;4.30;99.90;;;;;;5068380;28;20209;-67
2022/12/17 19:34:22;;;;;;;23.17;9.70;;;4.00;95.50;;;;;;5069115;28;20196;-68
2022/12/17 19:36:50;;;;;;;28.73;11.80;;;4.10;95.50;;;;;;5069014;28;20185;-67
2022/12/17 19:39:19;;;;;;;29.17;12.23;;;4.00;95.30;;;;;;5068034;28;20256;-67
2022/12/17 19:41:48;;;;;;;22.07;10.00;;;4.10;95.30;;;;;;5050700;28;20192;-68
2022/12/17 19:44:16;;;;;;;18.90;8.87;;;4.00;95.30;;;;;;5050812;28;20596;-66
2022/12/17 19:46:44;;;;;;;23.37;10.43;;;4.00;95.30;;;;;;5067690;28;20201;-66
2022/12/17 19:49:12;;;;;;;24.93;11.27;;;4.00;95.30;;;;;;5050475;28;20597;-67
2022/12/17 19:51:41;;;;;;;27.70;11.03;;;4.00;95.30;;;;;;5068883;28;20209;-67
2022/12/17 19:54:13;;;;;;;25.23;10.70;;;4.00;95.60;;;;;;5068235;28;20538;-66
2022/12/17 19:56:42;;;;;;;26.93;10.90;;;3.90;95.20;;;;;;5068666;28;20181;-66
2022/12/17 19:59:10;;;;;;;28.97;11.53;;;4.20;95.30;;;;;;5068510;28;20196;-67
2022/12/17 20:01:42;;;;;;;28.37;11.67;;;3.70;99.90;;;;;;5036169;28;20190;-67
2022/12/17 20:04:10;;;;;;;25.30;9.83;;;1.40;94.00;;;;;;5044106;28;20713;-67
2022/12/17 20:06:37;;;;;;;21.23;9.70;;;3.80;99.90;;;;;;5034698;28;20226;-66
2022/12/17 20:09:06;;;;;;;19.57;9.47;;;3.80;95.10;;;;;;5047596;28;20217;-67
2022/12/17 20:11:37;;;;;;;24.63;10.30;;;3.90;99.90;;;;;;5047153;28;20639;-67
2022/12/17 20:14:07;;;;;;;18.57;8.30;;;3.80;95.10;;;;;;5030106;28;20273;-68
2022/12/17 20:16:36;;;;;;;16.03;7.20;;;3.90;99.90;;;;;;5028817;28;20214;-67
2022/12/17 20:19:05;;;;;;;18.30;7.87;;;3.70;99.90;;;;;;5029446;28;20197;-67
2022/12/17 20:21:32;;;;;;;13.47;7.33;;;4.70;99.90;;;;;;5045588;28;20214;-67
2022/12/17 20:23:59;;;;;;;13.60;6.83;;;3.80;99.90;;;;;;5047344;28;20598;-67
2022/12/17 20:26:27;;;;;;;15.80;7.20;;;3.80;99.90;;;;;;5048133;28;20712;-68
2022/12/17 20:28:56;;;;;;;17.13;7.67;;;3.90;95.70;;;;;;5046629;28;20208;-67
2022/12/17 20:31:23;;;;;;;19.57;8.90;;;;;;;;;;5047945;28;20221;-68
2022/12/17 20:33:51;;;;;;;20.57;8.93;;;;;;;;;;5046959;28;20608;-68
2022/12/17 20:36:20;;;;;;;18.87;9.27;;;3.70;99.90;;;;;;5048060;28;20185;-67
2022/12/17 20:38:47;;;;;;;30.00;12.27;;;3.70;95.00;;;;;;5047581;28;20186;-68
2022/12/17 20:41:16;;;;;;;27.67;11.53;;;3.70;95.00;;;;;;5047588;28;20185;-67
2022/12/17 20:43:44;;;;;;;31.40;12.77;;;3.70;95.00;;;;;;5048123;28;20688;-67
2022/12/17 20:46:14;;;;;;;29.97;13.30;;;3.60;94.90;;;;;;5041585;28;20660;-68
2022/12/17 20:48:43;;;;;;;38.37;13.93;;;3.70;99.90;;;;;;5028761;28;20214;-67
2022/12/17 20:51:12;;;;;;;31.77;14.07;;;3.60;95.00;;;;;;5029347;28;20768;-67
2022/12/17 20:53:39;;;;;;;37.90;15.60;;;3.60;95.00;;;;;;5043488;28;20267;-67
2022/12/17 20:56:08;;;;;;;27.70;12.57;;;3.60;95.00;;;;;;5028613;28;20190;-68
2022/12/17 20:58:36;;;;;;;31.33;13.47;;;3.60;95.10;;;;;;5045734;28;20681;-68
2022/12/17 21:01:05;;;;;;;29.07;11.73;;;3.50;95.00;;;;;;5030809;28;20700;-67
2022/12/17 21:03:34;;;;;;;29.47;11.70;;;3.50;95.10;;;;;;5043918;28;20252;-67
2022/12/17 21:06:07;;;;;;;28.03;13.30;;;3.50;95.10;;;;;;5049460;28;20720;-67
2022/12/17 21:08:34;;;;;;;37.50;14.23;;;3.50;95.10;;;;;;5065826;28;20235;-68
2022/12/17 21:11:01;;;;;;;29.17;12.30;;;3.50;95.10;;;;;;5066907;28;20220;-67
2022/12/17 21:13:29;;;;;;;30.10;13.37;;;3.50;95.10;;;;;;5068137;28;20185;-68
2022/12/17 21:15:57;;;;;;;29.50;12.17;;;3.40;95.30;;;;;;5067551;28;20197;-66
2022/12/17 21:18:28;;;;;;;26.73;11.53;;;3.40;95.20;;;;;;5066689;28;20196;-67
2022/12/17 21:21:02;;;;;;;24.17;9.93;;;3.50;95.20;;;;;;5068270;28;20197;-67
2022/12/17 21:23:30;;;;;;;20.33;9.90;;;3.40;95.30;;;;;;5048706;28;20209;-67
2022/12/17 21:25:58;;;;;;;28.63;12.43;;;3.40;95.10;;;;;;5048547;28;20221;-67
2022/12/17 21:28:26;;;;;;;28.50;12.50;;;3.40;95.10;;;;;;5048944;28;20249;-67
2022/12/17 21:30:53;;;;;;;25.07;11.00;;;3.40;95.20;;;;;;5047145;28;20586;-67
2022/12/17 21:33:20;;;;;;;22.00;9.70;;;3.30;95.10;;;;;;5030221;28;20206;-68
2022/12/17 21:35:47;;;;;;;28.20;11.60;;;3.30;95.10;;;;;;5048848;28;20193;-68
2022/12/17 21:38:16;;;;;;;26.97;10.93;;;3.30;95.20;;;;;;5056359;28;20185;-68
2022/12/17 21:40:43;;;;;;;22.33;9.23;;;3.30;95.10;;;;;;5067260;28;20185;-67
2022/12/17 21:43:10;;;;;;;30.17;11.93;;;3.30;95.10;;;;;;5048183;28;20182;-68
2022/12/17 21:45:40;;;;;;;23.20;9.77;;;3.30;94.90;;;;;;5050109;28;20198;-68
2022/12/17 21:48:09;;;;;;;23.20;9.57;;;3.30;94.90;;;;;;5051260;28;20182;-67
2022/12/17 21:50:40;;;;;;;19.20;8.83;;;3.30;94.80;;;;;;5052758;28;20194;-67
2022/12/17 21:53:07;;;;;;;24.63;10.23;;;3.10;99.90;;;;;;5051538;28;20206;-68
2022/12/17 21:55:36;;;;;;;23.00;10.20;;;3.20;94.70;;;;;;5052133;28;20201;-67
2022/12/17 21:58:05;;;;;;;18.77;8.47;;;3.20;94.70;;;;;;5051656;28;20619;-68
2022/12/17 22:00:32;;;;;;;23.67;10.23;;;3.20;94.70;;;;;;5050001;28;20185;-68
2022/12/17 22:02:59;;;;;;;22.33;9.40;;;3.20;94.70;;;;;;5051027;28;20190;-68
2022/12/17 22:05:26;;;;;;;15.27;7.60;;;3.20;94.60;;;;;;5051926;28;20290;-67
2022/12/17 22:07:54;;;;;;;19.03;8.83;;;3.20;94.60;;;;;;5048856;28;20194;-67
2022/12/17 22:10:21;;;;;;;19.10;8.17;;;3.20;94.50;;;;;;5051687;28;20682;-67
2022/12/17 22:15:34;;;;;;;20.60;9.37;;;3.20;94.50;;;;;;5070176;28;20298;-67
2022/12/17 22:18:01;;;;;;;28.10;10.40;;;3.20;94.40;;;;;;5050854;28;20193;-66
2022/12/17 22:20:28;;;;;;;16.80;7.53;;;3.10;94.40;;;;;;5070675;28;20710;-68
2022/12/17 22:22:55;;;;;;;16.90;7.90;;;3.10;94.40;;;;;;5070227;28;20605;-67
2022/12/17 22:25:22;;;;;;;18.63;8.17;;;3.20;99.90;;;;;;5070152;28;20208;-67
2022/12/17 22:27:51;;;;;;;16.83;7.83;;;3.20;94.50;;;;;;5070136;28;20189;-66
2022/12/17 22:33:04;;;;;;;18.27;8.10;;;3.20;94.40;;;;;;5055298;28;20208;-67
2022/12/17 22:35:34;;;;;;;23.33;9.83;;;3.10;94.30;;;;;;5051728;28;20198;-67
2022/12/17 22:38:03;;;;;;;23.33;9.90;;;3.00;99.90;;;;;;5050812;28;20212;-68
2022/12/17 22:40:32;;;;;;;22.93;9.93;;;3.10;94.40;;;;;;5050845;28;20216;-68
2022/12/17 22:45:45;;;;;;;23.80;9.97;;;3.00;94.30;;;;;;5051360;28;20690;-67
2022/12/17 22:48:16;;;;;;;24.43;10.00;;;3.00;94.30;;;;;;5049577;28;20263;-68
2022/12/17 22:50:43;;;;;;;31.47;12.47;;;3.00;94.30;;;;;;5051386;28;20558;-68
2022/12/17 22:53:10;;;;;;;28.87;11.93;;;2.90;94.20;;;;;;5032242;28;20206;-68
2022/12/17 22:55:37;;;;;;;24.73;10.93;;;3.00;94.40;;;;;;5051392;28;20193;-68
2022/12/17 22:58:06;;;;;;;24.93;11.33;;;2.90;94.30;;;;;;5031551;28;20563;-68
2022/12/17 23:00:35;;;;;;;28.83;12.33;;;3.00;94.40;;;;;;5049666;28;20193;-69
2022/12/17 23:03:03;;;;;;;30.00;10.93;;;2.90;94.40;;;;;;5069314;28;20190;-68
2022/12/17 23:05:31;;;;;;;27.40;11.17;;;2.90;94.40;;;;;;5051689;28;20221;-67
2022/12/17 23:07:58;;;;;;;29.57;11.83;;;2.90;94.40;;;;;;5068892;28;20193;-67
2022/12/17 23:10:26;;;;;;;25.33;11.17;;;2.90;94.40;;;;;;5069264;28;20212;-67
2022/12/17 23:12:54;;;;;;;27.97;11.93;;;2.80;94.50;;;;;;5050902;28;20212;-67
2022/12/17 23:15:32;;;;;;;27.87;11.53;;;2.80;94.60;;;;;;5069796;28;20189;-67
2022/12/17 23:18:02;;;;;;;27.20;11.63;;;2.80;94.60;;;;;;5023223;28;20204;-65
2022/12/17 23:20:32;;;;;;;25.63;10.97;;;2.70;94.60;;;;;;5037658;28;20209;-67
2022/12/17 23:22:59;;;;;;;24.03;10.43;;;2.80;94.70;;;;;;5056324;28;20189;-67
2022/12/17 23:25:28;;;;;;;22.37;9.93;;;2.80;94.70;;;;;;5031664;28;20276;-68
2022/12/17 23:27:55;;;;;;;23.20;9.63;;;2.70;94.70;;;;;;5053218;28;20284;-66
2022/12/17 23:30:25;;;;;;;26.90;12.20;;;2.80;94.70;;;;;;5065227;28;20673;-67
2022/12/17 23:33:01;;;;;;;24.43;10.43;;;2.80;94.80;;;;;;5050634;28;20213;-67
2022/12/17 23:35:28;;;;;;;22.37;10.07;;;2.70;94.80;;;;;;5053669;28;20204;-67
2022/12/17 23:37:55;;;;;;;21.40;10.17;;;2.70;94.80;;;;;;5058367;28;20219;-67
2022/12/17 23:40:24;;;;;;;25.47;10.60;;;2.70;94.80;;;;;;5054990;28;20226;-67
2022/12/17 23:42:51;;;;;;;26.70;11.60;;;2.80;94.90;;;;;;5047934;28;20263;-66
2022/12/17 23:45:18;;;;;;;27.83;11.30;;;2.70;94.80;;;;;;5043692;28;20201;-67
2022/12/17 23:47:45;;;;;;;24.13;9.90;;;2.70;94.90;;;;;;5049209;28;20252;-68
2022/12/17 23:50:13;;;;;;;24.77;10.83;;;2.70;94.90;;;;;;5046765;28;20198;-68
2022/12/17 23:52:40;;;;;;;27.10;11.57;;;2.70;95.00;;;;;;5029717;28;20605;-67
2022/12/17 23:55:10;;;;;;;24.53;10.93;;;2.70;95.00;;;;;;5051763;28;20547;-67
2022/12/17 23:57:37;;;;;;;25.87;11.57;;;2.60;95.00;;;;;;5062235;28;20194;-66
